createdAt,value
2023-01-13T00:00:17.887Z,9.06
2023-01-13T00:01:17.812Z,9.06
2023-01-13T00:02:17.846Z,9.06
2023-01-13T00:03:17.786Z,9.08
2023-01-13T00:04:17.784Z,9.06
2023-01-13T00:05:17.759Z,9.08
2023-01-13T00:06:17.748Z,9.08
2023-01-13T00:07:17.730Z,9.08
2023-01-13T00:08:17.719Z,9.06
2023-01-13T00:09:17.725Z,9.06
2023-01-13T00:10:17.690Z,9.06
2023-01-13T00:11:17.702Z,9.06
2023-01-13T00:12:17.700Z,9.06
2023-01-13T00:13:17.653Z,9.06
2023-01-13T00:14:17.656Z,9.06
2023-01-13T00:15:17.636Z,9.08
2023-01-13T00:16:17.689Z,9.08
2023-01-13T00:17:17.600Z,9.06
2023-01-13T00:18:17.587Z,9.06
2023-01-13T00:19:17.575Z,9.08
2023-01-13T00:20:17.561Z,9.06
2023-01-13T00:21:17.567Z,9.08
2023-01-13T00:22:17.535Z,9.08
2023-01-13T00:23:17.525Z,9.06
2023-01-13T00:24:17.514Z,9.06
2023-01-13T00:25:17.504Z,9.06
2023-01-13T00:26:17.497Z,9.06
2023-01-13T00:27:17.492Z,9.08
2023-01-13T00:28:17.458Z,9.06
2023-01-13T00:29:17.443Z,9.08
2023-01-13T00:30:17.435Z,9.06
2023-01-13T00:31:17.514Z,9.06
2023-01-13T00:32:17.409Z,9.08
2023-01-13T00:33:17.389Z,9.08
2023-01-13T00:34:17.376Z,9.08
2023-01-13T00:35:17.399Z,9.08
2023-01-13T00:36:17.369Z,9.09
2023-01-13T00:37:17.341Z,9.06
2023-01-13T00:38:17.323Z,9.08
2023-01-13T00:39:17.313Z,9.06
2023-01-13T00:40:17.299Z,9.09
2023-01-13T00:41:17.284Z,9.08
2023-01-13T00:42:17.275Z,9.08
2023-01-13T00:43:17.287Z,9.08
2023-01-13T00:44:17.245Z,9.08
2023-01-13T00:45:17.246Z,9.09
2023-01-13T00:46:17.302Z,9.08
2023-01-13T00:47:17.208Z,9.08
2023-01-13T00:48:17.204Z,9.08
2023-01-13T00:49:17.181Z,9.08
2023-01-13T00:50:17.167Z,9.06
2023-01-13T00:51:17.149Z,9.06
2023-01-13T00:52:17.139Z,9.08
2023-01-13T00:53:17.131Z,9.08
2023-01-13T00:54:17.113Z,9.08
2023-01-13T00:55:17.103Z,9.08
2023-01-13T00:56:21.853Z,9.08
2023-01-13T00:57:18.134Z,9.08
2023-01-13T00:58:17.060Z,9.08
2023-01-13T00:59:17.074Z,9.06
2023-01-13T01:00:17.044Z,9.08
2023-01-13T01:01:17.176Z,9.06
2023-01-13T01:02:17.154Z,9.06
2023-01-13T01:03:16.995Z,9.09
2023-01-13T01:04:16.983Z,9.08
2023-01-13T01:05:16.970Z,9.08
2023-01-13T01:06:16.961Z,9.09
2023-01-13T01:07:16.945Z,9.08
2023-01-13T01:08:16.929Z,9.09
2023-01-13T01:09:16.916Z,9.09
2023-01-13T01:10:16.903Z,9.06
2023-01-13T01:11:16.891Z,9.08
2023-01-13T01:12:16.877Z,9.09
2023-01-13T01:13:16.866Z,9.09
2023-01-13T01:14:16.849Z,9.06
2023-01-13T01:15:16.865Z,9.06
2023-01-13T01:16:16.916Z,9.06
2023-01-13T01:17:16.813Z,9.06
2023-01-13T01:18:16.797Z,9.06
2023-01-13T01:19:16.791Z,9.08
2023-01-13T01:20:16.770Z,9.06
2023-01-13T01:21:16.758Z,9.08
2023-01-13T01:22:16.765Z,9.06
2023-01-13T01:23:16.746Z,9.06
2023-01-13T01:24:16.814Z,9.08
2023-01-13T01:25:16.705Z,9.08
2023-01-13T01:26:16.699Z,9.09
2023-01-13T01:27:16.680Z,9.08
2023-01-13T01:28:16.666Z,9.06
2023-01-13T01:29:16.666Z,9.08
2023-01-13T01:30:16.642Z,9.08
2023-01-13T01:31:16.703Z,9.08
2023-01-13T01:32:16.614Z,9.08
2023-01-13T01:33:16.601Z,9.08
2023-01-13T01:34:16.588Z,9.06
2023-01-13T01:35:16.576Z,9.08
2023-01-13T01:36:16.562Z,9.08
2023-01-13T01:37:16.550Z,9.08
2023-01-13T01:38:16.534Z,9.08
2023-01-13T01:39:16.528Z,9.08
2023-01-13T01:40:16.519Z,9.09
2023-01-13T01:41:16.501Z,9.09
2023-01-13T01:42:16.482Z,9.11
2023-01-13T01:43:16.469Z,9.08
2023-01-13T01:44:16.458Z,9.08
2023-01-13T01:45:16.443Z,9.08
2023-01-13T01:46:16.533Z,9.08
2023-01-13T01:47:16.439Z,9.09
2023-01-13T01:48:16.406Z,9.09
2023-01-13T01:49:16.397Z,9.09
2023-01-13T01:50:16.379Z,9.08
2023-01-13T01:51:16.380Z,9.09
2023-01-13T01:52:16.366Z,9.08
2023-01-13T01:53:16.337Z,9.08
2023-01-13T01:54:16.325Z,9.09
2023-01-13T01:55:16.321Z,9.08
2023-01-13T01:56:16.300Z,9.06
2023-01-13T01:57:16.290Z,9.08
2023-01-13T01:58:16.271Z,9.08
2023-01-13T01:59:16.262Z,9.08
2023-01-13T02:00:16.249Z,9.09
2023-01-13T02:01:16.385Z,9.09
2023-01-13T02:02:16.245Z,9.09
2023-01-13T02:03:16.230Z,9.08
2023-01-13T02:04:16.194Z,9.09
2023-01-13T02:05:16.180Z,9.08
2023-01-13T02:06:16.166Z,9.08
2023-01-13T02:07:16.155Z,9.09
2023-01-13T02:08:16.142Z,9.08
2023-01-13T02:09:16.131Z,9.09
2023-01-13T02:10:16.122Z,9.08
2023-01-13T02:11:16.101Z,9.09
2023-01-13T02:12:16.088Z,9.08
2023-01-13T02:13:16.080Z,9.09
2023-01-13T02:14:16.063Z,9.09
2023-01-13T02:15:16.049Z,9.09
2023-01-13T02:16:16.071Z,9.08
2023-01-13T02:17:16.022Z,9.08
2023-01-13T02:18:16.018Z,9.09
2023-01-13T02:19:16.020Z,9.08
2023-01-13T02:20:15.984Z,9.09
2023-01-13T02:21:15.971Z,9.08
2023-01-13T02:22:15.959Z,9.09
2023-01-13T02:23:15.945Z,9.08
2023-01-13T02:24:15.930Z,9.08
2023-01-13T02:25:15.921Z,9.06
2023-01-13T02:26:15.905Z,9.09
2023-01-13T02:27:15.891Z,9.08
2023-01-13T02:28:15.878Z,9.06
2023-01-13T02:29:15.868Z,9.08
2023-01-13T02:30:15.856Z,9.08
2023-01-13T02:31:15.932Z,9.08
2023-01-13T02:32:15.828Z,9.09
2023-01-13T02:33:15.827Z,9.08
2023-01-13T02:34:15.802Z,9.09
2023-01-13T02:35:15.810Z,9.08
2023-01-13T02:36:15.774Z,9.09
2023-01-13T02:37:15.762Z,9.06
2023-01-13T02:38:15.754Z,9.08
2023-01-13T02:39:15.750Z,9.08
2023-01-13T02:40:15.738Z,9.08
2023-01-13T02:41:15.709Z,9.08
2023-01-13T02:42:15.694Z,9.08
2023-01-13T02:43:15.684Z,9.09
2023-01-13T02:44:15.676Z,9.08
2023-01-13T02:45:15.657Z,9.08
2023-01-13T02:46:15.641Z,9.09
2023-01-13T02:47:15.632Z,9.08
2023-01-13T02:48:15.624Z,9.08
2023-01-13T02:49:15.606Z,9.08
2023-01-13T02:50:15.590Z,9.08
2023-01-13T02:51:15.611Z,9.11
2023-01-13T02:52:15.566Z,9.09
2023-01-13T02:53:15.552Z,9.08
2023-01-13T02:54:15.554Z,9.09
2023-01-13T02:55:15.523Z,9.11
2023-01-13T02:56:15.515Z,9.09
2023-01-13T02:57:15.499Z,9.08
2023-01-13T02:58:15.485Z,9.09
2023-01-13T02:59:15.471Z,9.08
2023-01-13T03:00:15.445Z,9.08
2023-01-13T03:01:15.519Z,9.09
2023-01-13T03:02:15.685Z,9.08
2023-01-13T03:03:15.394Z,9.08
2023-01-13T03:04:15.384Z,9.08
2023-01-13T03:05:15.372Z,9.09
2023-01-13T03:06:15.351Z,9.08
2023-01-13T03:07:15.373Z,9.09
2023-01-13T03:08:15.325Z,9.09
2023-01-13T03:09:15.313Z,9.08
2023-01-13T03:10:15.300Z,9.09
2023-01-13T03:11:15.294Z,9.08
2023-01-13T03:12:15.272Z,9.08
2023-01-13T03:13:15.258Z,9.09
2023-01-13T03:14:15.247Z,9.09
2023-01-13T03:15:15.236Z,9.09
2023-01-13T03:16:15.258Z,9.09
2023-01-13T03:17:15.211Z,9.09
2023-01-13T03:18:15.203Z,9.09
2023-01-13T03:19:15.180Z,9.09
2023-01-13T03:20:15.170Z,9.09
2023-01-13T03:21:15.154Z,9.08
2023-01-13T03:22:15.142Z,9.09
2023-01-13T03:23:15.172Z,9.09
2023-01-13T03:24:15.121Z,9.08
2023-01-13T03:25:15.105Z,9.09
2023-01-13T03:26:15.097Z,9.11
2023-01-13T03:27:15.091Z,9.09
2023-01-13T03:28:15.072Z,9.09
2023-01-13T03:29:15.081Z,9.11
2023-01-13T03:30:15.039Z,9.09
2023-01-13T03:31:15.033Z,9.11
2023-01-13T03:32:15.011Z,9.11
2023-01-13T03:33:15.009Z,9.09
2023-01-13T03:34:14.992Z,9.09
2023-01-13T03:35:14.972Z,9.09
2023-01-13T03:36:14.963Z,9.11
2023-01-13T03:37:14.945Z,9.11
2023-01-13T03:38:14.937Z,9.11
2023-01-13T03:39:14.946Z,9.09
2023-01-13T03:40:14.907Z,9.09
2023-01-13T03:41:14.893Z,9.09
2023-01-13T03:42:14.885Z,9.11
2023-01-13T03:43:14.866Z,9.08
2023-01-13T03:44:14.856Z,9.09
2023-01-13T03:45:14.842Z,9.09
2023-01-13T03:46:14.874Z,9.09
2023-01-13T03:47:14.821Z,9.08
2023-01-13T03:48:14.807Z,9.09
2023-01-13T03:49:14.788Z,9.09
2023-01-13T03:50:14.775Z,9.09
2023-01-13T03:51:14.761Z,9.08
2023-01-13T03:52:14.749Z,9.11
2023-01-13T03:53:14.739Z,9.09
2023-01-13T03:54:14.724Z,9.08
2023-01-13T03:55:14.740Z,9.09
2023-01-13T03:56:14.697Z,9.09
2023-01-13T03:57:14.683Z,9.11
2023-01-13T03:58:14.722Z,9.09
2023-01-13T03:59:14.656Z,9.09
2023-01-13T04:00:14.652Z,9.09
2023-01-13T04:01:14.757Z,9.11
2023-01-13T04:02:14.713Z,9.08
2023-01-13T04:03:14.600Z,9.09
2023-01-13T04:04:14.594Z,9.09
2023-01-13T04:05:14.578Z,9.08
2023-01-13T04:06:14.567Z,9.09
2023-01-13T04:07:14.551Z,9.09
2023-01-13T04:08:14.542Z,9.08
2023-01-13T04:09:14.526Z,9.09
2023-01-13T04:10:14.520Z,9.11
2023-01-13T04:11:14.528Z,9.09
2023-01-13T04:12:14.494Z,9.08
2023-01-13T04:13:14.481Z,9.09
2023-01-13T04:14:14.460Z,9.11
2023-01-13T04:15:14.447Z,9.11
2023-01-13T04:16:14.433Z,9.11
2023-01-13T04:17:14.428Z,9.11
2023-01-13T04:18:14.426Z,9.12
2023-01-13T04:19:14.397Z,9.11
2023-01-13T04:20:14.383Z,9.12
2023-01-13T04:21:14.374Z,9.11
2023-01-13T04:22:14.359Z,9.11
2023-01-13T04:23:14.341Z,9.11
2023-01-13T04:24:14.340Z,9.11
2023-01-13T04:25:14.315Z,9.09
2023-01-13T04:26:14.303Z,9.11
2023-01-13T04:27:14.320Z,9.09
2023-01-13T04:28:14.290Z,9.11
2023-01-13T04:29:15.735Z,9.09
2023-01-13T04:30:14.249Z,9.09
2023-01-13T04:31:14.281Z,9.08
2023-01-13T04:32:14.222Z,9.09
2023-01-13T04:33:14.223Z,9.09
2023-01-13T04:34:14.200Z,9.09
2023-01-13T04:35:14.184Z,9.09
2023-01-13T04:36:14.172Z,9.09
2023-01-13T04:37:14.163Z,9.09
2023-01-13T04:38:14.148Z,9.09
2023-01-13T04:39:14.132Z,9.11
2023-01-13T04:40:20.122Z,9.09
2023-01-13T04:41:14.104Z,9.08
2023-01-13T04:42:14.094Z,9.09
2023-01-13T04:43:14.109Z,9.08
2023-01-13T04:44:14.066Z,9.08
2023-01-13T04:45:14.055Z,9.09
2023-01-13T04:46:14.104Z,9.09
2023-01-13T04:47:14.032Z,9.08
2023-01-13T04:48:14.022Z,9.08
2023-01-13T04:49:13.998Z,9.06
2023-01-13T04:50:13.991Z,9.08
2023-01-13T04:51:13.973Z,9.08
2023-01-13T04:52:13.962Z,9.06
2023-01-13T04:53:13.962Z,9.08
2023-01-13T04:54:13.934Z,9.08
2023-01-13T04:55:13.921Z,9.06
2023-01-13T04:56:13.910Z,9.08
2023-01-13T04:57:13.901Z,9.06
2023-01-13T04:58:13.883Z,9.08
2023-01-13T04:59:13.893Z,9.08
2023-01-13T05:00:13.859Z,9.06
2023-01-13T05:01:14.008Z,9.08
2023-01-13T05:02:13.846Z,9.08
2023-01-13T05:03:13.818Z,9.08
2023-01-13T05:04:13.804Z,9.08
2023-01-13T05:05:13.798Z,9.08
2023-01-13T05:06:13.777Z,9.06
2023-01-13T05:07:13.765Z,9.08
2023-01-13T05:08:13.758Z,9.06
2023-01-13T05:09:13.736Z,9.06
2023-01-13T05:10:13.735Z,9.08
2023-01-13T05:11:13.712Z,9.06
2023-01-13T05:12:13.699Z,9.08
2023-01-13T05:13:13.689Z,9.06
2023-01-13T05:14:13.672Z,9.06
2023-01-13T05:15:13.684Z,9.08
2023-01-13T05:16:13.764Z,9.08
2023-01-13T05:17:13.633Z,9.06
2023-01-13T05:18:13.627Z,9.06
2023-01-13T05:19:13.616Z,9.08
2023-01-13T05:20:13.598Z,9.06
2023-01-13T05:21:13.582Z,9.06
2023-01-13T05:22:13.569Z,9.06
2023-01-13T05:23:13.560Z,9.06
2023-01-13T05:24:13.549Z,9.08
2023-01-13T05:25:13.530Z,9.08
2023-01-13T05:26:13.537Z,9.08
2023-01-13T05:27:13.509Z,9.06
2023-01-13T05:28:13.494Z,9.06
2023-01-13T05:29:13.478Z,9.05
2023-01-13T05:30:13.465Z,9.08
2023-01-13T05:31:13.495Z,9.05
2023-01-13T05:32:13.448Z,9.05
2023-01-13T05:33:13.428Z,9.05
2023-01-13T05:34:13.413Z,9.05
2023-01-13T05:35:13.397Z,9.05
2023-01-13T05:36:13.388Z,9.06
2023-01-13T05:37:13.372Z,9.06
2023-01-13T05:38:13.363Z,9.05
2023-01-13T05:39:13.347Z,9.05
2023-01-13T05:40:13.394Z,9.06
2023-01-13T05:41:13.347Z,9.06
2023-01-13T05:42:13.309Z,9.05
2023-01-13T05:43:13.303Z,9.04
2023-01-13T05:44:13.295Z,9.05
2023-01-13T05:45:13.273Z,9.05
2023-01-13T05:46:13.295Z,9.05
2023-01-13T05:47:13.268Z,9.05
2023-01-13T05:48:13.234Z,9.04
2023-01-13T05:49:13.220Z,9.05
2023-01-13T05:50:13.207Z,9.05
2023-01-13T05:51:13.195Z,9.06
2023-01-13T05:52:13.177Z,9.05
2023-01-13T05:53:13.164Z,9.05
2023-01-13T05:54:13.154Z,9.05
2023-01-13T05:55:13.153Z,9.05
2023-01-13T05:56:13.126Z,9.05
2023-01-13T05:57:13.115Z,9.05
2023-01-13T05:58:13.103Z,9.05
2023-01-13T05:59:13.096Z,9.06
2023-01-13T06:00:13.078Z,9.06
2023-01-13T06:01:13.127Z,9.04
2023-01-13T06:02:13.053Z,9.05
2023-01-13T06:03:13.129Z,9.04
2023-01-13T06:04:13.076Z,9.06
2023-01-13T06:05:13.014Z,9.04
2023-01-13T06:06:13.003Z,9.05
2023-01-13T06:07:12.987Z,9.05
2023-01-13T06:08:12.969Z,9.05
2023-01-13T06:09:12.956Z,9.06
2023-01-13T06:10:12.949Z,9.06
2023-01-13T06:11:12.931Z,9.06
2023-01-13T06:12:12.920Z,9.06
2023-01-13T06:13:12.904Z,9.06
2023-01-13T06:14:12.891Z,9.08
2023-01-13T06:15:12.874Z,9.05
2023-01-13T06:16:12.930Z,9.05
2023-01-13T06:17:12.855Z,9.06
2023-01-13T06:18:12.839Z,9.06
2023-01-13T06:19:12.878Z,9.06
2023-01-13T06:20:12.814Z,9.06
2023-01-13T06:21:12.804Z,9.06
2023-01-13T06:22:12.801Z,9.05
2023-01-13T06:23:12.774Z,9.06
2023-01-13T06:24:12.771Z,9.05
2023-01-13T06:25:12.764Z,9.06
2023-01-13T06:26:12.759Z,9.06
2023-01-13T06:27:12.743Z,9.06
2023-01-13T06:28:12.710Z,9.06
2023-01-13T06:29:12.707Z,9.06
2023-01-13T06:30:12.696Z,9.06
2023-01-13T06:31:12.811Z,9.06
2023-01-13T06:32:12.661Z,9.06
2023-01-13T06:33:12.643Z,9.05
2023-01-13T06:34:12.636Z,9.05
2023-01-13T06:35:12.661Z,9.04
2023-01-13T06:36:12.616Z,9.06
2023-01-13T06:37:12.591Z,9.05
2023-01-13T06:38:12.581Z,9.06
2023-01-13T06:39:12.566Z,9.06
2023-01-13T06:40:12.552Z,9.06
2023-01-13T06:41:12.546Z,9.05
2023-01-13T06:42:12.531Z,9.06
2023-01-13T06:43:15.024Z,9.04
2023-01-13T06:44:12.517Z,9.06
2023-01-13T06:45:12.489Z,9.08
2023-01-13T06:46:12.475Z,9.08
2023-01-13T06:47:12.460Z,9.06
2023-01-13T06:48:12.448Z,9.06
2023-01-13T06:49:12.439Z,9.06
2023-01-13T06:50:12.444Z,9.08
2023-01-13T06:51:12.431Z,9.06
2023-01-13T06:52:12.406Z,9.06
2023-01-13T06:53:12.382Z,9.08
2023-01-13T06:54:12.412Z,9.06
2023-01-13T06:55:12.357Z,9.08
2023-01-13T06:56:12.343Z,9.06
2023-01-13T06:57:12.340Z,9.06
2023-01-13T06:58:12.322Z,9.06
2023-01-13T06:59:12.302Z,9.06
2023-01-13T07:00:12.304Z,9.05
2023-01-13T07:01:12.385Z,9.05
2023-01-13T07:02:12.575Z,9.05
2023-01-13T07:03:12.276Z,9.06
2023-01-13T07:04:12.246Z,9.05
2023-01-13T07:05:12.224Z,9.05
2023-01-13T07:06:12.213Z,9.05
2023-01-13T07:07:12.225Z,9.06
2023-01-13T07:08:12.189Z,9.05
2023-01-13T07:09:12.187Z,9.05
2023-01-13T07:10:12.161Z,9.05
2023-01-13T07:11:12.148Z,9.06
2023-01-13T07:12:12.145Z,9.05
2023-01-13T07:13:12.139Z,9.04
2023-01-13T07:14:12.108Z,9.06
2023-01-13T07:15:12.105Z,9.05
2023-01-13T07:16:12.227Z,9.05
2023-01-13T07:17:12.069Z,9.05
2023-01-13T07:18:12.055Z,9.04
2023-01-13T07:19:12.040Z,9.05
2023-01-13T07:20:12.027Z,9.05
2023-01-13T07:21:12.016Z,9.04
2023-01-13T07:22:12.003Z,9.05
2023-01-13T07:23:12.011Z,9.05
2023-01-13T07:24:11.996Z,9.05
2023-01-13T07:25:11.986Z,9.05
2023-01-13T07:26:11.952Z,9.05
2023-01-13T07:27:11.942Z,9.04
2023-01-13T07:28:11.925Z,9.05
2023-01-13T07:29:11.914Z,9.04
2023-01-13T07:30:11.899Z,9.05
2023-01-13T07:31:11.928Z,9.05
2023-01-13T07:32:11.871Z,9.05
2023-01-13T07:33:11.860Z,9.06
2023-01-13T07:34:11.860Z,9.05
2023-01-13T07:35:11.833Z,9.04
2023-01-13T07:36:11.821Z,9.04
2023-01-13T07:37:11.809Z,9.02
2023-01-13T07:38:11.791Z,9.04
2023-01-13T07:39:11.806Z,9.05
2023-01-13T07:40:11.765Z,9.04
2023-01-13T07:41:11.753Z,9.02
2023-01-13T07:42:11.740Z,9.05
2023-01-13T07:43:11.729Z,9.04
2023-01-13T07:44:11.711Z,9.05
2023-01-13T07:45:12.463Z,9.04
2023-01-13T07:46:11.781Z,9.05
2023-01-13T07:47:11.679Z,9.02
2023-01-13T07:48:11.661Z,9.04
2023-01-13T07:49:11.648Z,9.04
2023-01-13T07:50:11.634Z,9.04
2023-01-13T07:51:11.651Z,9.05
2023-01-13T07:52:11.608Z,9.04
2023-01-13T07:53:11.596Z,9.05
2023-01-13T07:54:11.586Z,9.04
2023-01-13T07:55:11.599Z,9.04
2023-01-13T07:56:11.561Z,9.05
2023-01-13T07:57:11.544Z,9.05
2023-01-13T07:58:11.531Z,9.05
2023-01-13T07:59:11.537Z,9.04
2023-01-13T08:00:12.976Z,9.02
2023-01-13T08:01:11.641Z,9.04
2023-01-13T08:02:11.767Z,9.04
2023-01-13T08:03:11.535Z,9.02
2023-01-13T08:04:11.452Z,9.04
2023-01-13T08:05:11.448Z,9.04
2023-01-13T08:06:11.436Z,9.04
2023-01-13T08:07:11.419Z,9.04
2023-01-13T08:08:11.402Z,9.02
2023-01-13T08:09:11.390Z,9.02
2023-01-13T08:10:11.376Z,9.02
2023-01-13T08:11:11.395Z,9.04
2023-01-13T08:12:11.352Z,9.04
2023-01-13T08:13:11.349Z,9.05
2023-01-13T08:14:11.334Z,9.05
2023-01-13T08:15:11.319Z,9.02
2023-01-13T08:16:11.297Z,9.02
2023-01-13T08:17:11.294Z,9.04
2023-01-13T08:18:11.273Z,9.02
2023-01-13T08:19:11.262Z,9.04
2023-01-13T08:20:11.249Z,9.02
2023-01-13T08:21:11.243Z,9.05
2023-01-13T08:22:11.219Z,9.04
2023-01-13T08:23:11.208Z,9.02
2023-01-13T08:24:11.195Z,9.02
2023-01-13T08:25:11.181Z,9.02
2023-01-13T08:26:11.168Z,9.02
2023-01-13T08:27:11.183Z,9.02
2023-01-13T08:28:11.146Z,9.01
2023-01-13T08:29:13.746Z,9.02
2023-01-13T08:30:11.115Z,9.02
2023-01-13T08:31:11.147Z,9.02
2023-01-13T08:32:11.092Z,9.02
2023-01-13T08:33:11.106Z,9.01
2023-01-13T08:34:11.063Z,9.01
2023-01-13T08:35:11.052Z,9.02
2023-01-13T08:36:11.039Z,9.01
2023-01-13T08:37:11.029Z,9.01
2023-01-13T08:38:11.021Z,9.02
2023-01-13T08:39:11.005Z,9.02
2023-01-13T08:40:10.985Z,9.02
2023-01-13T08:41:10.984Z,9.02
2023-01-13T08:42:10.964Z,9.02
2023-01-13T08:43:10.984Z,9.01
2023-01-13T08:44:10.932Z,9.02
2023-01-13T08:45:10.922Z,9.01
2023-01-13T08:46:11.011Z,9.02
2023-01-13T08:47:10.893Z,9.02
2023-01-13T08:48:10.891Z,9.02
2023-01-13T08:49:10.873Z,9.04
2023-01-13T08:50:10.866Z,9.04
2023-01-13T08:51:10.883Z,9.04
2023-01-13T08:52:10.829Z,9.04
2023-01-13T08:53:10.817Z,9.05
2023-01-13T08:54:10.804Z,9.04
2023-01-13T08:55:10.791Z,9.02
2023-01-13T08:56:10.795Z,9.05
2023-01-13T08:57:10.848Z,9.02
2023-01-13T08:58:15.888Z,9.02
2023-01-13T08:59:10.760Z,9.02
2023-01-13T09:00:10.726Z,9.04
2023-01-13T09:01:10.909Z,9.04
2023-01-13T09:02:10.949Z,9.02
2023-01-13T09:03:10.687Z,9.04
2023-01-13T09:04:10.748Z,9.04
2023-01-13T09:05:10.663Z,9.02
2023-01-13T09:06:10.645Z,9.02
2023-01-13T09:07:10.636Z,9.02
2023-01-13T09:08:10.638Z,9.05
2023-01-13T09:09:10.612Z,9.02
2023-01-13T09:10:10.591Z,9.05
2023-01-13T09:11:10.596Z,9.02
2023-01-13T09:12:10.573Z,9.04
2023-01-13T09:13:10.555Z,9.02
2023-01-13T09:14:10.560Z,9.05
2023-01-13T09:15:10.575Z,9.02
2023-01-13T09:16:10.592Z,9.02
2023-01-13T09:17:10.501Z,9.04
2023-01-13T09:18:10.518Z,9.04
2023-01-13T09:19:10.478Z,9.04
2023-01-13T09:20:10.479Z,9.05
2023-01-13T09:21:10.455Z,9.05
2023-01-13T09:22:10.468Z,9.05
2023-01-13T09:23:11.351Z,9.05
2023-01-13T09:24:10.428Z,9.05
2023-01-13T09:25:10.408Z,9.05
2023-01-13T09:26:10.399Z,9.05
2023-01-13T09:27:10.398Z,9.06
2023-01-13T09:28:10.373Z,9.05
2023-01-13T09:29:10.363Z,9.06
2023-01-13T09:30:10.420Z,9.05
2023-01-13T09:31:10.439Z,9.05
2023-01-13T09:32:10.378Z,9.05
2023-01-13T09:33:10.290Z,9.05
2023-01-13T09:34:10.277Z,9.05
2023-01-13T09:35:10.276Z,9.06
2023-01-13T09:36:10.251Z,9.05
2023-01-13T09:37:10.240Z,9.08
2023-01-13T09:38:10.228Z,9.06
2023-01-13T09:39:10.218Z,9.08
2023-01-13T09:40:10.199Z,9.08
2023-01-13T09:41:10.195Z,9.09
2023-01-13T09:42:10.179Z,9.09
2023-01-13T09:43:10.163Z,9.08
2023-01-13T09:44:10.191Z,9.08
2023-01-13T09:45:10.137Z,9.06
2023-01-13T09:46:10.142Z,9.08
2023-01-13T09:47:11.646Z,9.08
2023-01-13T09:48:10.095Z,9.08
2023-01-13T09:49:10.084Z,9.08
2023-01-13T09:50:10.070Z,9.08
2023-01-13T09:51:10.192Z,9.06
2023-01-13T09:52:10.053Z,9.06
2023-01-13T09:53:10.031Z,9.06
2023-01-13T09:54:10.023Z,9.08
2023-01-13T09:55:10.008Z,9.05
2023-01-13T09:56:09.991Z,9.08
2023-01-13T09:57:09.993Z,9.09
2023-01-13T09:58:09.965Z,9.08
2023-01-13T09:59:09.960Z,9.08
2023-01-13T10:00:09.957Z,9.06
2023-01-13T10:01:09.961Z,9.08
2023-01-13T10:02:09.915Z,9.06
2023-01-13T10:03:10.053Z,9.11
2023-01-13T10:04:09.884Z,9.08
2023-01-13T10:05:09.942Z,9.08
2023-01-13T10:06:09.868Z,9.08
2023-01-13T10:07:09.854Z,9.09
2023-01-13T10:08:09.833Z,9.08
2023-01-13T10:09:09.823Z,9.08
2023-01-13T10:10:09.812Z,9.08
2023-01-13T10:11:09.807Z,9.09
2023-01-13T10:12:09.786Z,9.09
2023-01-13T10:13:09.770Z,9.06
2023-01-13T10:14:09.762Z,9.09
2023-01-13T10:15:09.745Z,9.09
2023-01-13T10:16:09.787Z,9.09
2023-01-13T10:17:09.720Z,9.12
2023-01-13T10:18:09.703Z,9.11
2023-01-13T10:19:09.719Z,9.11
2023-01-13T10:20:09.700Z,9.09
2023-01-13T10:21:09.667Z,9.12
2023-01-13T10:22:09.657Z,9.09
2023-01-13T10:23:09.643Z,9.11
2023-01-13T10:24:09.626Z,9.11
2023-01-13T10:25:09.619Z,9.09
2023-01-13T10:26:09.723Z,9.11
2023-01-13T10:27:09.590Z,9.09
2023-01-13T10:28:09.573Z,9.09
2023-01-13T10:29:09.565Z,9.09
2023-01-13T10:30:09.551Z,9.11
2023-01-13T10:31:09.576Z,9.11
2023-01-13T10:32:09.529Z,9.12
2023-01-13T10:33:09.523Z,9.12
2023-01-13T10:34:09.514Z,9.12
2023-01-13T10:35:09.534Z,9.12
2023-01-13T10:36:09.469Z,9.14
2023-01-13T10:37:09.465Z,9.14
2023-01-13T10:38:09.440Z,9.12
2023-01-13T10:39:09.449Z,9.14
2023-01-13T10:40:09.419Z,9.14
2023-01-13T10:41:09.418Z,9.14
2023-01-13T10:42:09.393Z,9.15
2023-01-13T10:43:09.400Z,9.14
2023-01-13T10:44:09.824Z,9.14
2023-01-13T10:45:09.355Z,9.14
2023-01-13T10:46:09.377Z,9.14
2023-01-13T10:47:09.326Z,9.15
2023-01-13T10:48:09.321Z,9.15
2023-01-13T10:49:09.300Z,9.17
2023-01-13T10:50:09.808Z,9.17
2023-01-13T10:51:09.299Z,9.17
2023-01-13T10:52:09.311Z,9.17
2023-01-13T10:53:09.247Z,9.17
2023-01-13T10:54:09.232Z,9.15
2023-01-13T10:55:09.224Z,9.17
2023-01-13T10:56:09.210Z,9.15
2023-01-13T10:57:09.196Z,9.15
2023-01-13T10:58:09.182Z,9.15
2023-01-13T10:59:09.171Z,9.15
2023-01-13T11:00:09.153Z,9.17
2023-01-13T11:01:09.189Z,9.17
2023-01-13T11:02:24.171Z,9.17
2023-01-13T11:03:10.182Z,9.15
2023-01-13T11:04:09.105Z,9.15
2023-01-13T11:05:09.150Z,9.17
2023-01-13T11:06:09.091Z,9.17
2023-01-13T11:07:09.097Z,9.15
2023-01-13T11:08:09.058Z,9.17
2023-01-13T11:09:09.042Z,9.15
2023-01-13T11:10:09.036Z,9.17
2023-01-13T11:11:09.014Z,9.17
2023-01-13T11:12:09.007Z,9.15
2023-01-13T11:13:08.993Z,9.17
2023-01-13T11:14:09.367Z,9.17
2023-01-13T11:15:08.972Z,9.15
2023-01-13T11:16:08.971Z,9.17
2023-01-13T11:17:08.939Z,9.17
2023-01-13T11:18:08.922Z,9.17
2023-01-13T11:19:08.923Z,9.15
2023-01-13T11:20:08.898Z,9.17
2023-01-13T11:21:08.884Z,9.17
2023-01-13T11:22:08.870Z,9.19
2023-01-13T11:23:08.888Z,9.17
2023-01-13T11:24:08.845Z,9.17
2023-01-13T11:25:08.834Z,9.19
2023-01-13T11:26:08.817Z,9.19
2023-01-13T11:27:08.812Z,9.17
2023-01-13T11:28:08.796Z,9.17
2023-01-13T11:29:08.781Z,9.19
2023-01-13T11:30:08.805Z,9.17
2023-01-13T11:31:08.810Z,9.17
2023-01-13T11:32:08.741Z,9.17
2023-01-13T11:33:08.729Z,9.17
2023-01-13T11:34:08.713Z,9.17
2023-01-13T11:35:08.702Z,9.17
2023-01-13T11:36:08.688Z,9.17
2023-01-13T11:37:08.698Z,9.19
2023-01-13T11:38:08.665Z,9.19
2023-01-13T11:39:08.715Z,9.19
2023-01-13T11:40:08.646Z,9.20
2023-01-13T11:41:08.625Z,9.19
2023-01-13T11:42:08.612Z,9.17
2023-01-13T11:43:08.599Z,9.20
2023-01-13T11:44:08.583Z,9.19
2023-01-13T11:45:08.571Z,9.20
2023-01-13T11:46:08.557Z,9.22
2023-01-13T11:47:08.544Z,9.22
2023-01-13T11:48:08.532Z,9.20
2023-01-13T11:49:08.519Z,9.22
2023-01-13T11:50:08.506Z,9.22
2023-01-13T11:51:08.492Z,9.22
2023-01-13T11:52:08.478Z,9.22
2023-01-13T11:53:08.471Z,9.23
2023-01-13T11:54:08.454Z,9.23
2023-01-13T11:55:08.467Z,9.22
2023-01-13T11:56:08.428Z,9.22
2023-01-13T11:57:08.414Z,9.20
2023-01-13T11:58:08.409Z,9.20
2023-01-13T11:59:08.394Z,9.20
2023-01-13T12:00:08.378Z,9.20
2023-01-13T12:01:08.414Z,9.20
2023-01-13T12:02:08.401Z,9.20
2023-01-13T12:03:08.411Z,9.22
2023-01-13T12:04:08.320Z,9.20
2023-01-13T12:05:08.339Z,9.20
2023-01-13T12:06:08.296Z,9.22
2023-01-13T12:07:08.282Z,9.20
2023-01-13T12:08:08.274Z,9.22
2023-01-13T12:09:08.255Z,9.22
2023-01-13T12:10:13.080Z,9.22
2023-01-13T12:11:08.259Z,9.20
2023-01-13T12:12:08.228Z,9.22
2023-01-13T12:13:08.202Z,9.22
2023-01-13T12:14:08.197Z,9.20
2023-01-13T12:15:08.180Z,9.22
2023-01-13T12:16:08.242Z,9.23
2023-01-13T12:17:08.168Z,9.23
2023-01-13T12:18:08.139Z,9.23
2023-01-13T12:19:08.123Z,9.23
2023-01-13T12:20:08.114Z,9.23
2023-01-13T12:21:08.097Z,9.23
2023-01-13T12:22:08.094Z,9.23
2023-01-13T12:23:08.071Z,9.22
2023-01-13T12:24:08.062Z,9.22
2023-01-13T12:25:08.049Z,9.22
2023-01-13T12:26:08.040Z,9.23
2023-01-13T12:27:08.052Z,9.23
2023-01-13T12:28:08.018Z,9.23
2023-01-13T12:29:07.993Z,9.23
2023-01-13T12:30:07.988Z,9.23
2023-01-13T12:31:07.966Z,9.24
2023-01-13T12:32:07.955Z,9.23
2023-01-13T12:33:07.940Z,9.23
2023-01-13T12:34:07.927Z,9.26
2023-01-13T12:35:07.914Z,9.26
2023-01-13T12:36:07.901Z,9.23
2023-01-13T12:37:07.904Z,9.23
2023-01-13T12:38:07.877Z,9.23
2023-01-13T12:39:07.861Z,9.24
2023-01-13T12:40:07.853Z,9.23
2023-01-13T12:41:07.838Z,9.23
2023-01-13T12:42:07.825Z,9.23
2023-01-13T12:43:07.837Z,9.23
2023-01-13T12:44:07.807Z,9.23
2023-01-13T12:45:07.786Z,9.22
2023-01-13T12:46:07.834Z,9.23
2023-01-13T12:47:07.757Z,9.23
2023-01-13T12:48:07.745Z,9.22
2023-01-13T12:49:07.754Z,9.24
2023-01-13T12:50:07.719Z,9.23
2023-01-13T12:51:13.712Z,9.24
2023-01-13T12:52:07.747Z,9.24
2023-01-13T12:53:07.696Z,9.24
2023-01-13T12:54:07.672Z,9.24
2023-01-13T12:55:07.651Z,9.26
2023-01-13T12:56:07.642Z,9.24
2023-01-13T12:57:07.626Z,9.23
2023-01-13T12:58:07.615Z,9.23
2023-01-13T12:59:07.626Z,9.24
2023-01-13T13:00:07.593Z,9.24
2023-01-13T13:01:07.684Z,9.24
2023-01-13T13:02:13.806Z,9.24
2023-01-13T13:03:13.557Z,9.24
2023-01-13T13:04:13.549Z,9.24
2023-01-13T13:05:07.521Z,9.26
2023-01-13T13:06:07.524Z,9.27
2023-01-13T13:07:07.492Z,9.26
2023-01-13T13:08:07.480Z,9.26
2023-01-13T13:09:07.473Z,9.26
2023-01-13T13:10:07.458Z,9.24
2023-01-13T13:11:07.443Z,9.26
2023-01-13T13:12:07.432Z,9.27
2023-01-13T13:13:07.415Z,9.26
2023-01-13T13:14:07.406Z,9.26
2023-01-13T13:15:07.537Z,9.26
2023-01-13T13:16:07.380Z,9.26
2023-01-13T13:17:07.372Z,9.26
2023-01-13T13:18:07.353Z,9.24